sensor_id;sensor_type;location;lat;lon;timestamp;P1;durP1;ratioP1;P2;durP2;ratioP2
34236;SDS011;20501;45.956;13.632;2023-04-06T00:00:13;8.40;;;3.33;;
34236;SDS011;20501;45.956;13.632;2023-04-06T00:02:39;5.28;;;3.13;;
34236;SDS011;20501;45.956;13.632;2023-04-06T00:05:05;5.22;;;3.60;;
34236;SDS011;20501;45.956;13.632;2023-04-06T00:07:31;6.70;;;3.55;;
34236;SDS011;20501;45.956;13.632;2023-04-06T00:09:58;8.82;;;3.72;;
34236;SDS011;20501;45.956;13.632;2023-04-06T00:12:23;8.40;;;3.75;;
34236;SDS011;20501;45.956;13.632;2023-04-06T00:14:49;8.65;;;3.92;;
34236;SDS011;20501;45.956;13.632;2023-04-06T00:17:15;7.00;;;2.97;;
34236;SDS011;20501;45.956;13.632;2023-04-06T00:19:40;5.93;;;3.72;;
34236;SDS011;20501;45.956;13.632;2023-04-06T00:22:06;14.57;;;5.20;;
34236;SDS011;20501;45.956;13.632;2023-04-06T00:24:31;8.18;;;3.55;;
34236;SDS011;20501;45.956;13.632;2023-04-06T00:26:57;9.93;;;4.78;;
34236;SDS011;20501;45.956;13.632;2023-04-06T00:29:22;8.77;;;4.43;;
34236;SDS011;20501;45.956;13.632;2023-04-06T00:31:48;10.13;;;4.68;;
34236;SDS011;20501;45.956;13.632;2023-04-06T00:34:13;4.68;;;2.90;;
34236;SDS011;20501;45.956;13.632;2023-04-06T00:36:40;10.93;;;4.13;;
34236;SDS011;20501;45.956;13.632;2023-04-06T00:39:06;6.47;;;3.42;;
34236;SDS011;20501;45.956;13.632;2023-04-06T00:41:31;6.93;;;3.50;;
34236;SDS011;20501;45.956;13.632;2023-04-06T00:43:57;5.20;;;3.20;;
34236;SDS011;20501;45.956;13.632;2023-04-06T00:46:22;8.57;;;3.67;;
34236;SDS011;20501;45.956;13.632;2023-04-06T00:48:48;7.20;;;3.45;;
34236;SDS011;20501;45.956;13.632;2023-04-06T00:51:13;4.63;;;2.70;;
34236;SDS011;20501;45.956;13.632;2023-04-06T00:53:39;6.38;;;3.30;;
34236;SDS011;20501;45.956;13.632;2023-04-06T00:56:05;4.68;;;2.97;;
34236;SDS011;20501;45.956;13.632;2023-04-06T00:58:30;6.88;;;3.17;;
34236;SDS011;20501;45.956;13.632;2023-04-06T01:00:57;6.55;;;3.60;;
34236;SDS011;20501;45.956;13.632;2023-04-06T01:03:23;7.25;;;3.08;;
34236;SDS011;20501;45.956;13.632;2023-04-06T01:05:48;7.20;;;3.00;;
34236;SDS011;20501;45.956;13.632;2023-04-06T01:08:14;11.38;;;4.53;;
34236;SDS011;20501;45.956;13.632;2023-04-06T01:10:39;6.60;;;3.17;;
34236;SDS011;20501;45.956;13.632;2023-04-06T01:13:05;5.78;;;3.70;;
34236;SDS011;20501;45.956;13.632;2023-04-06T01:15:32;9.93;;;4.70;;
34236;SDS011;20501;45.956;13.632;2023-04-06T01:17:58;10.25;;;3.90;;
34236;SDS011;20501;45.956;13.632;2023-04-06T01:20:24;10.38;;;3.40;;
34236;SDS011;20501;45.956;13.632;2023-04-06T01:22:49;9.52;;;4.53;;
34236;SDS011;20501;45.956;13.632;2023-04-06T01:25:14;12.32;;;5.47;;
34236;SDS011;20501;45.956;13.632;2023-04-06T01:27:40;10.18;;;4.30;;
34236;SDS011;20501;45.956;13.632;2023-04-06T01:30:06;6.03;;;3.40;;
34236;SDS011;20501;45.956;13.632;2023-04-06T01:32:32;8.55;;;4.50;;
34236;SDS011;20501;45.956;13.632;2023-04-06T01:34:58;8.75;;;3.95;;
34236;SDS011;20501;45.956;13.632;2023-04-06T01:37:23;7.43;;;3.53;;
34236;SDS011;20501;45.956;13.632;2023-04-06T01:39:48;9.05;;;3.65;;
34236;SDS011;20501;45.956;13.632;2023-04-06T01:42:15;7.10;;;3.77;;
34236;SDS011;20501;45.956;13.632;2023-04-06T01:44:40;5.70;;;3.35;;
34236;SDS011;20501;45.956;13.632;2023-04-06T01:47:05;5.88;;;3.22;;
34236;SDS011;20501;45.956;13.632;2023-04-06T01:49:31;6.57;;;2.95;;
34236;SDS011;20501;45.956;13.632;2023-04-06T01:51:56;7.65;;;3.60;;
34236;SDS011;20501;45.956;13.632;2023-04-06T01:54:22;7.25;;;3.60;;
34236;SDS011;20501;45.956;13.632;2023-04-06T01:56:47;5.47;;;3.33;;
34236;SDS011;20501;45.956;13.632;2023-04-06T01:59:15;10.77;;;3.97;;
34236;SDS011;20501;45.956;13.632;2023-04-06T02:01:40;7.05;;;3.90;;
34236;SDS011;20501;45.956;13.632;2023-04-06T02:04:06;9.50;;;3.72;;
34236;SDS011;20501;45.956;13.632;2023-04-06T02:06:31;6.50;;;3.67;;
34236;SDS011;20501;45.956;13.632;2023-04-06T02:08:57;7.10;;;3.88;;
34236;SDS011;20501;45.956;13.632;2023-04-06T02:11:22;9.48;;;4.45;;
34236;SDS011;20501;45.956;13.632;2023-04-06T02:13:47;7.15;;;3.63;;
34236;SDS011;20501;45.956;13.632;2023-04-06T02:16:13;6.85;;;3.92;;
34236;SDS011;20501;45.956;13.632;2023-04-06T02:18:39;6.13;;;3.97;;
34236;SDS011;20501;45.956;13.632;2023-04-06T02:21:05;7.82;;;3.97;;
34236;SDS011;20501;45.956;13.632;2023-04-06T02:23:30;7.90;;;3.90;;
34236;SDS011;20501;45.956;13.632;2023-04-06T02:25:56;6.43;;;4.32;;
34236;SDS011;20501;45.956;13.632;2023-04-06T02:28:21;9.00;;;5.03;;
34236;SDS011;20501;45.956;13.632;2023-04-06T02:30:46;8.20;;;4.28;;
34236;SDS011;20501;45.956;13.632;2023-04-06T02:33:12;7.13;;;4.07;;
34236;SDS011;20501;45.956;13.632;2023-04-06T02:35:37;7.28;;;4.13;;
34236;SDS011;20501;45.956;13.632;2023-04-06T02:38:03;7.43;;;3.65;;
34236;SDS011;20501;45.956;13.632;2023-04-06T02:40:28;5.50;;;3.28;;
34236;SDS011;20501;45.956;13.632;2023-04-06T02:42:53;8.70;;;4.65;;
34236;SDS011;20501;45.956;13.632;2023-04-06T02:45:19;7.88;;;4.32;;
34236;SDS011;20501;45.956;13.632;2023-04-06T02:47:45;7.70;;;3.83;;
34236;SDS011;20501;45.956;13.632;2023-04-06T02:50:10;6.13;;;3.60;;
34236;SDS011;20501;45.956;13.632;2023-04-06T02:52:36;8.70;;;3.75;;
34236;SDS011;20501;45.956;13.632;2023-04-06T02:55:01;8.18;;;3.97;;
34236;SDS011;20501;45.956;13.632;2023-04-06T02:57:26;10.50;;;4.50;;
34236;SDS011;20501;45.956;13.632;2023-04-06T02:59:52;5.93;;;3.70;;
34236;SDS011;20501;45.956;13.632;2023-04-06T03:02:17;7.00;;;3.60;;
34236;SDS011;20501;45.956;13.632;2023-04-06T03:04:44;7.03;;;3.28;;
34236;SDS011;20501;45.956;13.632;2023-04-06T03:07:10;5.35;;;3.22;;
34236;SDS011;20501;45.956;13.632;2023-04-06T03:09:36;7.35;;;3.45;;
34236;SDS011;20501;45.956;13.632;2023-04-06T03:14:28;6.95;;;4.13;;
34236;SDS011;20501;45.956;13.632;2023-04-06T03:16:53;8.05;;;3.70;;
34236;SDS011;20501;45.956;13.632;2023-04-06T03:19:19;10.50;;;4.07;;
34236;SDS011;20501;45.956;13.632;2023-04-06T03:21:44;7.88;;;4.22;;
34236;SDS011;20501;45.956;13.632;2023-04-06T03:24:09;8.90;;;3.60;;
34236;SDS011;20501;45.956;13.632;2023-04-06T03:26:35;6.70;;;3.33;;
34236;SDS011;20501;45.956;13.632;2023-04-06T03:29:01;7.63;;;3.83;;
34236;SDS011;20501;45.956;13.632;2023-04-06T03:31:26;5.63;;;3.08;;
34236;SDS011;20501;45.956;13.632;2023-04-06T03:33:52;8.38;;;3.92;;
34236;SDS011;20501;45.956;13.632;2023-04-06T03:36:17;9.30;;;3.45;;
34236;SDS011;20501;45.956;13.632;2023-04-06T03:38:43;9.98;;;3.75;;
34236;SDS011;20501;45.956;13.632;2023-04-06T03:41:08;6.57;;;3.53;;
34236;SDS011;20501;45.956;13.632;2023-04-06T03:43:33;5.88;;;3.47;;
34236;SDS011;20501;45.956;13.632;2023-04-06T03:45:59;4.63;;;3.10;;
34236;SDS011;20501;45.956;13.632;2023-04-06T03:48:25;7.07;;;3.72;;
34236;SDS011;20501;45.956;13.632;2023-04-06T03:50:50;5.07;;;3.10;;
34236;SDS011;20501;45.956;13.632;2023-04-06T03:53:16;8.77;;;3.80;;
34236;SDS011;20501;45.956;13.632;2023-04-06T03:55:41;10.82;;;3.47;;
34236;SDS011;20501;45.956;13.632;2023-04-06T03:58:06;5.30;;;3.22;;
34236;SDS011;20501;45.956;13.632;2023-04-06T04:00:32;5.90;;;3.10;;
34236;SDS011;20501;45.956;13.632;2023-04-06T04:02:58;6.93;;;2.83;;
34236;SDS011;20501;45.956;13.632;2023-04-06T04:05:23;8.80;;;3.15;;
34236;SDS011;20501;45.956;13.632;2023-04-06T04:07:50;7.03;;;3.38;;
34236;SDS011;20501;45.956;13.632;2023-04-06T04:10:16;5.85;;;3.30;;
34236;SDS011;20501;45.956;13.632;2023-04-06T04:12:42;7.05;;;3.00;;
34236;SDS011;20501;45.956;13.632;2023-04-06T04:15:07;6.65;;;3.72;;
34236;SDS011;20501;45.956;13.632;2023-04-06T04:17:33;8.35;;;4.10;;
34236;SDS011;20501;45.956;13.632;2023-04-06T04:19:59;5.97;;;3.22;;
34236;SDS011;20501;45.956;13.632;2023-04-06T04:22:24;6.10;;;3.05;;
34236;SDS011;20501;45.956;13.632;2023-04-06T04:24:50;6.47;;;3.40;;
34236;SDS011;20501;45.956;13.632;2023-04-06T04:27:15;6.05;;;3.08;;
34236;SDS011;20501;45.956;13.632;2023-04-06T04:29:40;5.10;;;2.97;;
34236;SDS011;20501;45.956;13.632;2023-04-06T04:32:06;6.10;;;2.80;;
34236;SDS011;20501;45.956;13.632;2023-04-06T04:34:31;5.20;;;2.95;;
34236;SDS011;20501;45.956;13.632;2023-04-06T04:36:57;6.28;;;2.97;;
34236;SDS011;20501;45.956;13.632;2023-04-06T04:39:23;8.32;;;4.50;;
34236;SDS011;20501;45.956;13.632;2023-04-06T04:41:48;13.30;;;4.38;;
34236;SDS011;20501;45.956;13.632;2023-04-06T04:44:14;4.90;;;3.05;;
34236;SDS011;20501;45.956;13.632;2023-04-06T04:46:40;6.15;;;2.92;;
34236;SDS011;20501;45.956;13.632;2023-04-06T04:49:06;7.75;;;3.58;;
34236;SDS011;20501;45.956;13.632;2023-04-06T04:51:31;5.97;;;3.42;;
34236;SDS011;20501;45.956;13.632;2023-04-06T04:53:57;8.77;;;3.10;;
34236;SDS011;20501;45.956;13.632;2023-04-06T04:56:23;6.65;;;3.03;;
34236;SDS011;20501;45.956;13.632;2023-04-06T04:58:48;6.78;;;3.55;;
34236;SDS011;20501;45.956;13.632;2023-04-06T05:01:14;8.10;;;3.28;;
34236;SDS011;20501;45.956;13.632;2023-04-06T05:03:39;7.68;;;3.13;;
34236;SDS011;20501;45.956;13.632;2023-04-06T05:06:05;9.00;;;3.70;;
34236;SDS011;20501;45.956;13.632;2023-04-06T05:08:31;8.07;;;3.53;;
34236;SDS011;20501;45.956;13.632;2023-04-06T05:10:56;15.18;;;5.50;;
34236;SDS011;20501;45.956;13.632;2023-04-06T05:13:22;12.55;;;5.43;;
34236;SDS011;20501;45.956;13.632;2023-04-06T05:15:47;8.57;;;4.32;;
34236;SDS011;20501;45.956;13.632;2023-04-06T05:18:13;12.07;;;5.18;;
34236;SDS011;20501;45.956;13.632;2023-04-06T05:20:39;10.90;;;4.10;;
34236;SDS011;20501;45.956;13.632;2023-04-06T05:23:05;7.57;;;3.53;;
34236;SDS011;20501;45.956;13.632;2023-04-06T05:25:30;9.50;;;3.58;;
34236;SDS011;20501;45.956;13.632;2023-04-06T05:27:56;7.40;;;3.83;;
34236;SDS011;20501;45.956;13.632;2023-04-06T05:30:22;11.70;;;3.50;;
34236;SDS011;20501;45.956;13.632;2023-04-06T05:32:48;10.77;;;5.50;;
34236;SDS011;20501;45.956;13.632;2023-04-06T05:35:13;14.63;;;6.22;;
34236;SDS011;20501;45.956;13.632;2023-04-06T05:37:39;6.72;;;3.10;;
34236;SDS011;20501;45.956;13.632;2023-04-06T05:40:05;7.43;;;3.58;;
34236;SDS011;20501;45.956;13.632;2023-04-06T05:42:37;10.35;;;4.75;;
34236;SDS011;20501;45.956;13.632;2023-04-06T05:45:04;10.68;;;4.82;;
34236;SDS011;20501;45.956;13.632;2023-04-06T05:47:33;10.63;;;5.85;;
34236;SDS011;20501;45.956;13.632;2023-04-06T05:49:59;12.20;;;6.03;;
34236;SDS011;20501;45.956;13.632;2023-04-06T05:52:24;13.93;;;6.38;;
34236;SDS011;20501;45.956;13.632;2023-04-06T05:54:49;12.07;;;6.25;;
34236;SDS011;20501;45.956;13.632;2023-04-06T05:57:15;11.70;;;6.03;;
34236;SDS011;20501;45.956;13.632;2023-04-06T05:59:41;11.73;;;5.93;;
34236;SDS011;20501;45.956;13.632;2023-04-06T06:02:07;13.02;;;5.80;;
34236;SDS011;20501;45.956;13.632;2023-04-06T06:04:32;12.48;;;4.95;;
34236;SDS011;20501;45.956;13.632;2023-04-06T06:06:58;11.18;;;5.10;;
34236;SDS011;20501;45.956;13.632;2023-04-06T06:09:23;11.45;;;5.05;;
34236;SDS011;20501;45.956;13.632;2023-04-06T06:11:49;12.25;;;5.45;;
34236;SDS011;20501;45.956;13.632;2023-04-06T06:14:14;7.30;;;4.43;;
34236;SDS011;20501;45.956;13.632;2023-04-06T06:16:40;10.70;;;5.03;;
34236;SDS011;20501;45.956;13.632;2023-04-06T06:19:06;11.23;;;4.60;;
34236;SDS011;20501;45.956;13.632;2023-04-06T06:21:31;9.00;;;4.00;;
34236;SDS011;20501;45.956;13.632;2023-04-06T06:23:57;8.70;;;4.57;;
34236;SDS011;20501;45.956;13.632;2023-04-06T06:26:22;8.23;;;4.80;;
34236;SDS011;20501;45.956;13.632;2023-04-06T06:28:47;12.48;;;5.53;;
34236;SDS011;20501;45.956;13.632;2023-04-06T06:31:13;8.75;;;4.53;;
34236;SDS011;20501;45.956;13.632;2023-04-06T06:33:39;6.68;;;3.30;;
34236;SDS011;20501;45.956;13.632;2023-04-06T06:36:05;9.07;;;4.30;;
34236;SDS011;20501;45.956;13.632;2023-04-06T06:38:30;13.65;;;4.53;;
34236;SDS011;20501;45.956;13.632;2023-04-06T06:40:56;7.18;;;4.40;;
34236;SDS011;20501;45.956;13.632;2023-04-06T06:43:21;9.38;;;4.03;;
34236;SDS011;20501;45.956;13.632;2023-04-06T06:45:46;13.55;;;5.72;;
34236;SDS011;20501;45.956;13.632;2023-04-06T06:48:12;11.13;;;4.63;;
34236;SDS011;20501;45.956;13.632;2023-04-06T06:50:37;8.30;;;3.63;;
34236;SDS011;20501;45.956;13.632;2023-04-06T06:53:03;8.48;;;3.97;;
34236;SDS011;20501;45.956;13.632;2023-04-06T06:55:28;10.20;;;4.78;;
34236;SDS011;20501;45.956;13.632;2023-04-06T06:57:54;14.32;;;5.15;;
34236;SDS011;20501;45.956;13.632;2023-04-06T07:00:19;10.45;;;4.57;;
34236;SDS011;20501;45.956;13.632;2023-04-06T07:02:46;9.65;;;3.42;;
34236;SDS011;20501;45.956;13.632;2023-04-06T07:05:12;11.35;;;5.22;;
34236;SDS011;20501;45.956;13.632;2023-04-06T07:07:38;6.70;;;3.80;;
34236;SDS011;20501;45.956;13.632;2023-04-06T07:10:03;6.50;;;3.72;;
34236;SDS011;20501;45.956;13.632;2023-04-06T07:12:29;7.03;;;3.60;;
34236;SDS011;20501;45.956;13.632;2023-04-06T07:14:55;6.47;;;3.75;;
34236;SDS011;20501;45.956;13.632;2023-04-06T07:17:20;7.25;;;3.58;;
34236;SDS011;20501;45.956;13.632;2023-04-06T07:19:46;6.95;;;3.72;;
34236;SDS011;20501;45.956;13.632;2023-04-06T07:22:12;10.55;;;5.45;;
34236;SDS011;20501;45.956;13.632;2023-04-06T07:24:37;8.20;;;4.85;;
34236;SDS011;20501;45.956;13.632;2023-04-06T07:27:02;8.57;;;5.05;;
34236;SDS011;20501;45.956;13.632;2023-04-06T07:29:28;7.40;;;5.20;;
34236;SDS011;20501;45.956;13.632;2023-04-06T07:31:54;7.28;;;4.50;;
34236;SDS011;20501;45.956;13.632;2023-04-06T07:34:20;8.98;;;4.40;;
34236;SDS011;20501;45.956;13.632;2023-04-06T07:36:46;10.10;;;5.22;;
34236;SDS011;20501;45.956;13.632;2023-04-06T07:39:11;9.70;;;5.35;;
34236;SDS011;20501;45.956;13.632;2023-04-06T07:41:37;11.40;;;4.63;;
34236;SDS011;20501;45.956;13.632;2023-04-06T07:44:03;9.52;;;5.75;;
34236;SDS011;20501;45.956;13.632;2023-04-06T07:46:28;9.85;;;5.22;;
34236;SDS011;20501;45.956;13.632;2023-04-06T07:48:54;8.63;;;5.00;;
34236;SDS011;20501;45.956;13.632;2023-04-06T07:51:21;7.47;;;4.10;;
34236;SDS011;20501;45.956;13.632;2023-04-06T07:53:46;11.43;;;4.88;;
34236;SDS011;20501;45.956;13.632;2023-04-06T07:56:11;14.10;;;4.57;;
34236;SDS011;20501;45.956;13.632;2023-04-06T07:58:37;9.05;;;4.78;;
34236;SDS011;20501;45.956;13.632;2023-04-06T08:01:03;8.60;;;5.07;;
34236;SDS011;20501;45.956;13.632;2023-04-06T08:03:28;12.70;;;5.90;;
34236;SDS011;20501;45.956;13.632;2023-04-06T08:05:54;10.85;;;5.28;;
34236;SDS011;20501;45.956;13.632;2023-04-06T08:08:20;12.10;;;5.43;;
34236;SDS011;20501;45.956;13.632;2023-04-06T08:10:46;16.38;;;5.50;;
34236;SDS011;20501;45.956;13.632;2023-04-06T08:15:38;7.60;;;4.93;;
34236;SDS011;20501;45.956;13.632;2023-04-06T08:18:04;8.18;;;4.47;;
34236;SDS011;20501;45.956;13.632;2023-04-06T08:20:30;9.32;;;5.03;;
34236;SDS011;20501;45.956;13.632;2023-04-06T08:22:55;12.00;;;5.15;;
34236;SDS011;20501;45.956;13.632;2023-04-06T08:25:21;10.35;;;5.50;;
34236;SDS011;20501;45.956;13.632;2023-04-06T08:27:46;11.80;;;4.57;;
34236;SDS011;20501;45.956;13.632;2023-04-06T08:30:12;8.63;;;5.10;;
34236;SDS011;20501;45.956;13.632;2023-04-06T08:32:37;9.55;;;5.20;;
34236;SDS011;20501;45.956;13.632;2023-04-06T08:35:03;9.48;;;5.65;;
34236;SDS011;20501;45.956;13.632;2023-04-06T08:37:29;8.35;;;4.88;;
34236;SDS011;20501;45.956;13.632;2023-04-06T08:39:54;13.25;;;5.38;;
34236;SDS011;20501;45.956;13.632;2023-04-06T08:42:20;11.25;;;4.95;;
34236;SDS011;20501;45.956;13.632;2023-04-06T08:44:49;9.27;;;4.20;;
34236;SDS011;20501;45.956;13.632;2023-04-06T08:47:18;7.90;;;4.68;;
34236;SDS011;20501;45.956;13.632;2023-04-06T08:49:44;9.50;;;5.13;;
34236;SDS011;20501;45.956;13.632;2023-04-06T08:52:10;8.68;;;4.45;;
34236;SDS011;20501;45.956;13.632;2023-04-06T08:54:37;8.30;;;4.72;;
34236;SDS011;20501;45.956;13.632;2023-04-06T08:57:03;9.73;;;4.95;;
34236;SDS011;20501;45.956;13.632;2023-04-06T08:59:30;9.60;;;5.65;;
34236;SDS011;20501;45.956;13.632;2023-04-06T09:01:56;11.93;;;5.78;;
34236;SDS011;20501;45.956;13.632;2023-04-06T09:06:49;12.65;;;4.90;;
34236;SDS011;20501;45.956;13.632;2023-04-06T09:09:15;9.55;;;5.40;;
34236;SDS011;20501;45.956;13.632;2023-04-06T09:14:13;8.18;;;5.63;;
34236;SDS011;20501;45.956;13.632;2023-04-06T09:16:43;13.77;;;4.75;;
34236;SDS011;20501;45.956;13.632;2023-04-06T09:19:10;9.00;;;5.03;;
34236;SDS011;20501;45.956;13.632;2023-04-06T09:21:37;12.63;;;7.05;;
34236;SDS011;20501;45.956;13.632;2023-04-06T09:24:05;9.75;;;5.07;;
34236;SDS011;20501;45.956;13.632;2023-04-06T09:26:32;10.20;;;3.92;;
34236;SDS011;20501;45.956;13.632;2023-04-06T09:29:08;14.05;;;5.07;;
34236;SDS011;20501;45.956;13.632;2023-04-06T09:31:34;17.15;;;4.50;;
34236;SDS011;20501;45.956;13.632;2023-04-06T09:34:00;14.60;;;5.40;;
34236;SDS011;20501;45.956;13.632;2023-04-06T09:39:00;9.15;;;5.65;;
34236;SDS011;20501;45.956;13.632;2023-04-06T09:41:28;14.27;;;5.68;;
34236;SDS011;20501;45.956;13.632;2023-04-06T09:46:33;20.67;;;4.95;;
34236;SDS011;20501;45.956;13.632;2023-04-06T09:49:06;10.75;;;5.43;;
34236;SDS011;20501;45.956;13.632;2023-04-06T09:54:04;17.67;;;5.97;;
34236;SDS011;20501;45.956;13.632;2023-04-06T09:56:31;13.57;;;5.20;;
34236;SDS011;20501;45.956;13.632;2023-04-06T09:59:05;12.82;;;5.95;;
34236;SDS011;20501;45.956;13.632;2023-04-06T10:01:39;15.80;;;6.13;;
34236;SDS011;20501;45.956;13.632;2023-04-06T10:06:31;12.45;;;5.70;;
34236;SDS011;20501;45.956;13.632;2023-04-06T10:09:00;9.48;;;5.45;;
34236;SDS011;20501;45.956;13.632;2023-04-06T10:11:27;9.68;;;6.00;;
34236;SDS011;20501;45.956;13.632;2023-04-06T10:13:53;9.45;;;6.15;;
34236;SDS011;20501;45.956;13.632;2023-04-06T10:16:20;24.60;;;5.30;;
34236;SDS011;20501;45.956;13.632;2023-04-06T10:18:49;12.73;;;6.10;;
34236;SDS011;20501;45.956;13.632;2023-04-06T10:21:20;10.55;;;5.72;;
34236;SDS011;20501;45.956;13.632;2023-04-06T10:23:49;11.77;;;5.75;;
34236;SDS011;20501;45.956;13.632;2023-04-06T10:26:17;10.98;;;6.20;;
34236;SDS011;20501;45.956;13.632;2023-04-06T10:28:45;10.43;;;5.97;;
34236;SDS011;20501;45.956;13.632;2023-04-06T10:31:12;12.85;;;5.57;;
34236;SDS011;20501;45.956;13.632;2023-04-06T10:33:38;11.30;;;6.57;;
34236;SDS011;20501;45.956;13.632;2023-04-06T10:38:38;10.65;;;6.20;;
34236;SDS011;20501;45.956;13.632;2023-04-06T10:41:05;13.50;;;6.68;;
34236;SDS011;20501;45.956;13.632;2023-04-06T10:43:36;8.90;;;5.15;;
34236;SDS011;20501;45.956;13.632;2023-04-06T10:46:03;9.77;;;5.53;;
34236;SDS011;20501;45.956;13.632;2023-04-06T10:51:06;14.10;;;6.68;;
34236;SDS011;20501;45.956;13.632;2023-04-06T10:53:33;12.02;;;6.75;;
34236;SDS011;20501;45.956;13.632;2023-04-06T10:55:59;13.35;;;6.68;;
34236;SDS011;20501;45.956;13.632;2023-04-06T10:58:26;8.60;;;4.33;;
34236;SDS011;20501;45.956;13.632;2023-04-06T11:00:52;9.60;;;5.88;;
34236;SDS011;20501;45.956;13.632;2023-04-06T11:03:19;11.07;;;6.63;;
34236;SDS011;20501;45.956;13.632;2023-04-06T11:05:48;12.88;;;6.85;;
34236;SDS011;20501;45.956;13.632;2023-04-06T11:11:12;15.77;;;7.05;;
34236;SDS011;20501;45.956;13.632;2023-04-06T11:16:15;17.38;;;7.28;;
34236;SDS011;20501;45.956;13.632;2023-04-06T11:18:48;13.13;;;6.72;;
34236;SDS011;20501;45.956;13.632;2023-04-06T11:21:14;12.93;;;6.63;;
34236;SDS011;20501;45.956;13.632;2023-04-06T11:23:39;12.82;;;7.22;;
34236;SDS011;20501;45.956;13.632;2023-04-06T11:26:09;10.88;;;6.50;;
34236;SDS011;20501;45.956;13.632;2023-04-06T11:28:35;12.05;;;7.30;;
34236;SDS011;20501;45.956;13.632;2023-04-06T11:31:01;13.50;;;7.55;;
34236;SDS011;20501;45.956;13.632;2023-04-06T11:33:34;15.23;;;7.93;;
34236;SDS011;20501;45.956;13.632;2023-04-06T11:36:01;14.73;;;8.27;;
34236;SDS011;20501;45.956;13.632;2023-04-06T11:38:26;15.75;;;8.18;;
34236;SDS011;20501;45.956;13.632;2023-04-06T11:40:52;13.02;;;7.93;;
34236;SDS011;20501;45.956;13.632;2023-04-06T11:43:25;14.57;;;7.47;;
34236;SDS011;20501;45.956;13.632;2023-04-06T11:45:59;17.95;;;7.53;;
34236;SDS011;20501;45.956;13.632;2023-04-06T11:48:27;11.38;;;6.15;;
34236;SDS011;20501;45.956;13.632;2023-04-06T11:50:59;14.48;;;7.53;;
34236;SDS011;20501;45.956;13.632;2023-04-06T11:53:28;10.77;;;6.60;;
34236;SDS011;20501;45.956;13.632;2023-04-06T11:55:54;12.38;;;7.10;;
34236;SDS011;20501;45.956;13.632;2023-04-06T11:58:20;14.75;;;6.82;;
34236;SDS011;20501;45.956;13.632;2023-04-06T12:00:46;9.18;;;5.57;;
34236;SDS011;20501;45.956;13.632;2023-04-06T12:03:11;13.85;;;7.53;;
34236;SDS011;20501;45.956;13.632;2023-04-06T12:05:37;12.43;;;6.53;;
34236;SDS011;20501;45.956;13.632;2023-04-06T12:08:03;10.65;;;6.22;;
34236;SDS011;20501;45.956;13.632;2023-04-06T12:10:29;12.18;;;7.10;;
34236;SDS011;20501;45.956;13.632;2023-04-06T12:12:54;14.02;;;7.05;;
34236;SDS011;20501;45.956;13.632;2023-04-06T12:15:20;18.75;;;8.27;;
34236;SDS011;20501;45.956;13.632;2023-04-06T12:17:45;12.60;;;5.78;;
34236;SDS011;20501;45.956;13.632;2023-04-06T12:20:11;11.73;;;6.43;;
34236;SDS011;20501;45.956;13.632;2023-04-06T12:22:36;14.45;;;6.72;;
34236;SDS011;20501;45.956;13.632;2023-04-06T12:25:02;13.00;;;7.50;;
34236;SDS011;20501;45.956;13.632;2023-04-06T12:27:27;11.38;;;6.40;;
34236;SDS011;20501;45.956;13.632;2023-04-06T12:29:53;15.85;;;6.95;;
34236;SDS011;20501;45.956;13.632;2023-04-06T12:32:18;11.38;;;5.75;;
34236;SDS011;20501;45.956;13.632;2023-04-06T12:34:44;18.42;;;7.45;;
34236;SDS011;20501;45.956;13.632;2023-04-06T12:37:09;10.00;;;5.55;;
34236;SDS011;20501;45.956;13.632;2023-04-06T12:39:35;13.15;;;7.07;;
34236;SDS011;20501;45.956;13.632;2023-04-06T12:42:01;15.27;;;8.07;;
34236;SDS011;20501;45.956;13.632;2023-04-06T12:44:27;17.23;;;7.45;;
34236;SDS011;20501;45.956;13.632;2023-04-06T12:46:53;14.93;;;8.32;;
34236;SDS011;20501;45.956;13.632;2023-04-06T12:49:18;15.50;;;8.10;;
34236;SDS011;20501;45.956;13.632;2023-04-06T12:51:44;16.23;;;7.28;;
34236;SDS011;20501;45.956;13.632;2023-04-06T12:54:10;15.40;;;7.50;;
34236;SDS011;20501;45.956;13.632;2023-04-06T12:56:36;9.97;;;5.73;;
34236;SDS011;20501;45.956;13.632;2023-04-06T12:59:02;12.23;;;7.13;;
34236;SDS011;20501;45.956;13.632;2023-04-06T13:01:28;14.85;;;7.47;;
34236;SDS011;20501;45.956;13.632;2023-04-06T13:03:53;10.52;;;5.57;;
34236;SDS011;20501;45.956;13.632;2023-04-06T13:06:19;11.32;;;7.07;;
34236;SDS011;20501;45.956;13.632;2023-04-06T13:08:45;13.25;;;7.68;;
34236;SDS011;20501;45.956;13.632;2023-04-06T13:11:12;12.60;;;7.55;;
34236;SDS011;20501;45.956;13.632;2023-04-06T13:13:37;15.90;;;8.20;;
34236;SDS011;20501;45.956;13.632;2023-04-06T13:16:04;16.17;;;7.90;;
34236;SDS011;20501;45.956;13.632;2023-04-06T13:18:32;16.90;;;8.40;;
34236;SDS011;20501;45.956;13.632;2023-04-06T13:20:58;15.55;;;7.90;;
34236;SDS011;20501;45.956;13.632;2023-04-06T13:23:24;12.93;;;6.75;;
34236;SDS011;20501;45.956;13.632;2023-04-06T13:26:00;12.68;;;7.25;;
34236;SDS011;20501;45.956;13.632;2023-04-06T13:28:28;12.90;;;6.88;;
34236;SDS011;20501;45.956;13.632;2023-04-06T13:30:54;15.48;;;8.52;;
34236;SDS011;20501;45.956;13.632;2023-04-06T13:33:20;13.07;;;6.97;;
34236;SDS011;20501;45.956;13.632;2023-04-06T13:35:46;15.63;;;7.45;;
34236;SDS011;20501;45.956;13.632;2023-04-06T13:38:12;17.13;;;8.63;;
34236;SDS011;20501;45.956;13.632;2023-04-06T13:40:38;15.15;;;7.50;;
34236;SDS011;20501;45.956;13.632;2023-04-06T13:43:05;15.88;;;8.02;;
34236;SDS011;20501;45.956;13.632;2023-04-06T13:45:30;14.93;;;7.40;;
34236;SDS011;20501;45.956;13.632;2023-04-06T13:47:56;19.50;;;9.48;;
34236;SDS011;20501;45.956;13.632;2023-04-06T13:50:21;15.38;;;8.93;;
34236;SDS011;20501;45.956;13.632;2023-04-06T13:52:47;19.38;;;9.20;;
34236;SDS011;20501;45.956;13.632;2023-04-06T13:55:12;16.85;;;8.73;;
34236;SDS011;20501;45.956;13.632;2023-04-06T13:57:37;20.15;;;8.68;;
34236;SDS011;20501;45.956;13.632;2023-04-06T14:00:03;15.73;;;9.25;;
34236;SDS011;20501;45.956;13.632;2023-04-06T14:02:30;17.60;;;9.32;;
34236;SDS011;20501;45.956;13.632;2023-04-06T14:04:55;17.77;;;9.05;;
34236;SDS011;20501;45.956;13.632;2023-04-06T14:07:21;18.88;;;9.45;;
34236;SDS011;20501;45.956;13.632;2023-04-06T14:09:47;18.88;;;8.48;;
34236;SDS011;20501;45.956;13.632;2023-04-06T14:12:12;18.67;;;9.57;;
34236;SDS011;20501;45.956;13.632;2023-04-06T14:14:37;14.55;;;8.50;;
34236;SDS011;20501;45.956;13.632;2023-04-06T14:17:03;17.95;;;8.88;;
34236;SDS011;20501;45.956;13.632;2023-04-06T14:19:28;18.83;;;9.63;;
34236;SDS011;20501;45.956;13.632;2023-04-06T14:21:54;14.70;;;8.52;;
34236;SDS011;20501;45.956;13.632;2023-04-06T14:24:19;19.45;;;11.00;;
34236;SDS011;20501;45.956;13.632;2023-04-06T14:26:45;18.30;;;9.32;;
34236;SDS011;20501;45.956;13.632;2023-04-06T14:29:11;15.73;;;8.98;;
34236;SDS011;20501;45.956;13.632;2023-04-06T14:31:37;17.42;;;9.07;;
34236;SDS011;20501;45.956;13.632;2023-04-06T14:34:02;17.58;;;9.13;;
34236;SDS011;20501;45.956;13.632;2023-04-06T14:36:29;18.20;;;9.25;;
34236;SDS011;20501;45.956;13.632;2023-04-06T14:39:05;16.17;;;8.52;;
34236;SDS011;20501;45.956;13.632;2023-04-06T14:41:32;19.25;;;9.80;;
34236;SDS011;20501;45.956;13.632;2023-04-06T14:43:58;16.75;;;8.80;;
34236;SDS011;20501;45.956;13.632;2023-04-06T14:46:23;17.25;;;9.85;;
34236;SDS011;20501;45.956;13.632;2023-04-06T14:48:49;18.38;;;10.05;;
34236;SDS011;20501;45.956;13.632;2023-04-06T14:51:15;19.63;;;11.33;;